createdAt,value
2022-11-29T00:05:07.823Z,11
2022-11-29T00:33:58.511Z,10
2022-11-29T01:02:47.567Z,8
2022-11-29T01:31:38.296Z,8
2022-11-29T02:00:33.587Z,12
2022-11-29T02:29:18.807Z,13
2022-11-29T02:58:18.073Z,10
2022-11-29T03:27:08.331Z,8
2022-11-29T03:56:02.956Z,7
2022-11-29T04:24:47.600Z,6
2022-11-29T04:53:39.311Z,11
2022-11-29T05:22:31.620Z,20
2022-11-29T05:51:14.215Z,20
2022-11-29T06:19:44.565Z,15
2022-11-29T06:48:16.456Z,13
2022-11-29T07:17:08.623Z,21
2022-11-29T07:45:40.421Z,29
2022-11-29T08:14:07.389Z,26
2022-11-29T08:42:41.112Z,22
2022-11-29T09:11:15.218Z,21
2022-11-29T09:39:52.793Z,14
2022-11-29T10:08:45.353Z,22
2022-11-29T10:37:20.839Z,22
2022-11-29T11:06:14.508Z,22
2022-11-29T11:34:51.703Z,29
2022-11-29T12:32:06.342Z,32
2022-11-29T13:00:44.650Z,36
2022-11-29T13:29:33.251Z,33
2022-11-29T13:58:18.228Z,29
2022-11-29T14:26:40.602Z,33
2022-11-29T14:55:00.345Z,32
2022-11-29T15:23:32.228Z,32
2022-11-29T15:52:02.482Z,46
2022-11-29T16:20:30.487Z,47
2022-11-29T16:49:02.301Z,39
2022-11-29T17:17:37.702Z,43
2022-11-29T17:46:34.875Z,43
2022-11-29T18:15:12.321Z,39
2022-11-29T18:43:33.949Z,43
2022-11-29T19:12:09.695Z,56
2022-11-29T19:40:42.291Z,46
2022-11-29T20:08:50.163Z,43
2022-11-29T20:37:19.849Z,44
2022-11-29T21:05:53.756Z,47
2022-11-29T21:34:26.672Z,55
2022-11-29T22:03:12.691Z,52
2022-11-29T22:31:29.585Z,47
2022-11-29T22:59:59.597Z,49
2022-11-29T23:28:41.839Z,40
2022-11-29T23:57:22.242Z,39
